Weather at Offutt Air Force Base

Public forecast

Using degrees Fahrenheit for public forecast. Weather courtesy of forecast.io.

Current aviation weather report (METAR) for Offutt Air Force Base

2024/07/19 20:55 (retrieved 10 minutes ago)

KOFF 192055Z 16009KT 10SM SCT090 SCT210 27/16 A3008 RMK AO2A LTG DSNT W SLP184 T02690156 57011

Aviation forecast (TAF) for Offutt Air Force Base

2024/07/19 18:18 (retrieved 3 hours ago)

TAF KOFF 191800Z 1918/2024 19010G15KT 9999 FEW080 SCT150 OVC200 QNH3004INS BECMG 1921/1922 17010G15KT 8000 -SHRA SCT040 BKN080 OVC200 QNH2996INS TEMPO 1922/1924 VRB15G25KT 4800 -TSRA BKN020CB TEMPO 2006/2008 VRB15G25KT 4800 -TSRA BKN015 OVC040CB BECMG 2013/2014 17009KT 9999 NSW BKN040 OVC120 QNH2999INS TEMPO 2020/2024 15010G15KT 8000 -SHRA BKN020 OVC080 TX29/1920Z TN18/2012Z